Time;durP1;ratioP1;P1;durP2;ratioP2;P2;SDS_P1;SDS_P2;PMS_P1;PMS_P2;Temp;Humidity;BMP_temperature;BMP_pressure;BME280_temperature;BME280_humidity;BME280_pressure;Samples;Min_cycle;Max_cycle;Signal;HPM_P1;HPM_P2
2022/12/12 00:00:44;;;;;;;0.20;0.20;;;;;;;-0.70;100.00;101051.81;4929934;29;20027;-72
2022/12/12 00:03:10;;;;;;;0.20;0.20;;;;;;;-0.74;100.00;101036.97;4942794;28;20047;-72
2022/12/12 00:05:36;;;;;;;0.20;0.20;;;;;;;-0.70;100.00;101047.41;4927003;29;20039;-72
2022/12/12 00:08:01;;;;;;;0.20;0.20;;;;;;;-0.83;100.00;101027.56;4933144;29;20073;-72
2022/12/12 00:10:26;;;;;;;0.20;0.20;;;;;;;-0.75;100.00;101044.03;4934537;28;20049;-72
2022/12/12 00:12:52;;;;;;;0.28;0.28;;;;;;;-0.81;100.00;101037.16;4927531;29;20035;-72
2022/12/12 00:15:17;;;;;;;0.20;0.20;;;;;;;-0.83;100.00;101019.63;4929859;28;21380;-72
2022/12/12 00:17:43;;;;;;;0.20;0.20;;;;;;;-0.72;100.00;101035.16;4936107;29;20046;-72
2022/12/12 00:20:08;;;;;;;0.20;0.20;;;;;;;-0.61;100.00;101055.06;4932896;28;20023;-72
2022/12/12 00:22:34;;;;;;;0.20;0.20;;;;;;;-0.76;100.00;101048.44;4932900;29;20056;-72
2022/12/12 00:24:59;;;;;;;0.20;0.20;;;;;;;-0.78;100.00;101025.66;4909951;29;20039;-72
2022/12/12 00:27:24;;;;;;;0.20;0.20;;;;;;;-0.78;100.00;101049.38;4929619;29;20035;-72
2022/12/12 00:29:53;;;;;;;0.20;0.20;;;;;;;-0.85;100.00;101048.69;4932501;28;20059;-72
2022/12/12 00:32:19;;;;;;;0.20;0.20;;;;;;;-1.10;100.00;101017.72;4917490;28;20050;-72
2022/12/12 00:34:45;;;;;;;0.20;0.20;;;;;;;-0.94;100.00;101054.19;4938745;28;20465;-72
2022/12/12 00:37:10;;;;;;;0.30;0.30;;;;;;;-1.09;100.00;101021.19;4912995;29;20578;-72
2022/12/12 00:39:36;;;;;;;0.20;0.20;;;;;;;-0.99;100.00;101027.97;4932771;29;20098;-72
2022/12/12 00:42:01;;;;;;;0.20;0.20;;;;;;;-1.00;100.00;101031.50;4925122;28;20038;-72
2022/12/12 00:44:26;;;;;;;0.20;0.20;;;;;;;-1.06;100.00;101043.06;4933749;28;20031;-72
2022/12/12 00:46:52;;;;;;;0.20;0.20;;;;;;;-1.17;100.00;101024.03;4950102;28;20069;-72
2022/12/12 00:49:17;;;;;;;0.20;0.20;;;;;;;-1.19;100.00;101033.75;4935587;28;20034;-72
2022/12/12 00:51:43;;;;;;;0.20;0.20;;;;;;;-1.44;100.00;101008.03;4930297;29;20066;-72
2022/12/12 00:54:08;;;;;;;0.20;0.20;;;;;;;-1.19;100.00;101049.56;4913153;29;20566;-72
2022/12/12 00:56:34;;;;;;;0.22;0.22;;;;;;;-1.40;100.00;101030.78;4936056;28;20042;-72
2022/12/12 00:59:01;;;;;;;0.20;0.20;;;;;;;-1.48;100.00;101052.94;4909122;28;20820;-72
2022/12/12 01:01:28;;;;;;;0.20;0.20;;;;;;;-1.71;100.00;101047.31;4922630;29;20039;-72
2022/12/12 01:03:53;;;;;;;0.22;0.22;;;;;;;-1.84;100.00;101027.41;4920434;28;20094;-72
2022/12/12 01:06:19;;;;;;;0.20;0.20;;;;;;;-1.79;100.00;101035.22;4927934;28;20575;-72
2022/12/12 01:08:44;;;;;;;0.20;0.20;;;;;;;-1.74;100.00;101057.91;4925374;29;20023;-72
2022/12/12 01:11:10;;;;;;;0.20;0.20;;;;;;;-1.81;100.00;101056.31;4939617;28;20032;-72
2022/12/12 01:13:36;;;;;;;0.20;0.20;;;;;;;-1.84;100.00;101057.25;4924969;28;20038;-72
2022/12/12 01:16:04;;;;;;;0.22;0.22;;;;;;;-1.86;100.00;101061.69;4926755;29;20031;-72
2022/12/12 01:18:29;;;;;;;0.20;0.20;;;;;;;-1.86;100.00;101058.19;4906629;28;20035;-72
2022/12/12 01:20:54;;;;;;;0.25;0.25;;;;;;;-1.88;100.00;101062.63;4940542;28;20043;-72
2022/12/12 01:23:19;;;;;;;0.22;0.22;;;;;;;-2.13;100.00;101026.34;4920904;29;20027;-72
2022/12/12 01:25:45;;;;;;;0.30;0.30;;;;;;;-1.93;100.00;101072.38;4925379;29;20037;-72
2022/12/12 01:28:10;;;;;;;0.20;0.20;;;;;;;-1.99;100.00;101076.88;4938819;28;20027;-72
2022/12/12 01:30:36;;;;;;;0.20;0.20;;;;;;;-2.16;100.00;101058.81;4923761;29;20039;-72
2022/12/12 01:33:02;;;;;;;0.30;0.30;;;;;;;-2.16;100.00;101077.25;4925265;29;20122;-72
2022/12/12 01:35:29;;;;;;;0.20;0.20;;;;;;;-2.23;100.00;101080.03;4931464;29;20035;-72
2022/12/12 01:37:54;;;;;;;0.20;0.20;;;;;;;-2.41;100.00;101061.97;4929521;28;20173;-72
2022/12/12 01:40:27;;;;;;;0.30;0.30;;;;;;;-2.39;100.00;101075.09;4918338;29;20031;-72
2022/12/12 01:42:53;;;;;;;0.25;0.25;;;;;;;-2.46;100.00;101084.00;4920022;28;20544;-72
2022/12/12 01:45:53;;;;;;;0.20;0.20;;;;;;;-2.45;100.00;101098.88;4925107;28;20031;-72
2022/12/12 01:48:20;;;;;;;0.20;0.20;;;;;;;-2.61;100.00;101074.66;4940730;28;20036;-72
2022/12/12 01:50:45;;;;;;;0.30;0.30;;;;;;;-2.60;100.00;101079.84;4925765;29;20035;-72
2022/12/12 01:53:15;;;;;;;0.30;0.30;;;;;;;-2.65;100.00;101079.09;4928153;29;20058;-72
2022/12/12 01:55:41;;;;;;;0.20;0.20;;;;;;;-2.57;100.00;101087.69;4926991;29;20077;-72
2022/12/12 01:58:06;;;;;;;0.20;0.20;;;;;;;-2.47;100.00;101106.78;4907988;29;20545;-72
2022/12/12 02:00:31;;;;;;;0.20;0.20;;;;;;;-2.68;100.00;101078.28;4937832;28;20067;-73
2022/12/12 02:02:57;;;;;;;0.30;0.30;;;;;;;-2.61;100.00;101096.53;4923222;29;20031;-72
2022/12/12 02:05:28;;;;;;;0.30;0.30;;;;;;;-2.70;100.00;101109.88;4914134;28;20028;-72
2022/12/12 02:07:54;;;;;;;0.30;0.30;;;;;;;-2.91;100.00;101090.09;4923301;29;20474;-72
2022/12/12 02:10:19;;;;;;;0.20;0.20;;;;;;;-2.78;100.00;101095.97;4923955;28;20531;-72
2022/12/12 02:12:45;;;;;;;0.20;0.20;;;;;;;-2.69;100.00;101100.19;4907818;28;20034;-72
2022/12/12 02:15:10;;;;;;;0.22;0.22;;;;;;;-2.86;100.00;101089.09;4942755;28;20035;-72
2022/12/12 02:17:45;;;;;;;0.30;0.30;;;;;;;-2.78;100.00;101102.09;4912609;28;20478;-72
2022/12/12 02:20:44;;;;;;;0.30;0.30;;;;;;;-2.69;100.00;101100.19;4934800;29;20065;-73
2022/12/12 02:23:26;;;;;;;0.30;0.30;;;;;;;-2.61;100.00;101107.03;4938164;28;20035;-72
2022/12/12 02:26:07;;;;;;;0.30;0.30;;;;;;;-2.58;100.00;101109.63;4944025;28;20042;-72
2022/12/12 02:28:44;;;;;;;0.30;0.30;;;;;;;-2.56;100.00;101105.19;4926035;28;20468;-72
2022/12/12 02:31:15;;;;;;;0.30;0.30;;;;;;;-2.58;100.00;101104.38;4937716;28;20035;-72
2022/12/12 02:33:40;;;;;;;0.30;0.30;;;;;;;-2.57;100.00;101113.13;4941717;28;20126;-72
2022/12/12 02:36:44;;;;;;;0.28;0.28;;;;;;;-2.60;100.00;101108.78;4932544;28;20098;-72
2022/12/12 02:39:22;;;;;;;0.20;0.20;;;;;;;-2.55;100.00;101108.72;4940291;28;20303;-72
2022/12/12 02:41:55;;;;;;;0.20;0.20;;;;;;;-2.64;100.00;101098.34;4927593;29;20027;-72
2022/12/12 02:44:30;;;;;;;0.30;0.30;;;;;;;-2.71;100.00;101079.22;4931551;28;20061;-72
2022/12/12 02:47:06;;;;;;;0.30;0.30;;;;;;;-2.71;100.00;101098.47;4918830;28;20486;-72
2022/12/12 02:49:37;;;;;;;0.30;0.30;;;;;;;-2.61;100.00;101119.34;4934434;28;20045;-72
2022/12/12 02:52:04;;;;;;;0.25;0.25;;;;;;;-2.70;100.00;101094.09;4933609;28;20686;-72
2022/12/12 02:54:29;;;;;;;0.30;0.30;;;;;;;-2.66;100.00;101100.16;4912234;29;20111;-72
2022/12/12 02:56:57;;;;;;;0.30;0.30;;;;;;;-2.66;100.00;101108.03;4937683;28;20034;-72
2022/12/12 02:59:25;;;;;;;0.30;0.30;;;;;;;-2.75;100.00;101111.69;4930593;28;20023;-72
2022/12/12 03:02:11;;;;;;;0.28;0.28;;;;;;;-2.76;100.00;101104.72;4933172;29;20038;-72
2022/12/12 03:07:45;;;;;;;0.30;0.30;;;;;;;-2.86;100.00;101104.88;4944058;28;20053;-72
2022/12/12 03:10:36;;;;;;;0.30;0.30;;;;;;;-2.87;100.00;101104.91;4954411;28;20030;-72
2022/12/12 03:13:19;;;;;;;0.30;0.30;;;;;;;-2.99;100.00;101078.84;4935472;28;20552;-72
2022/12/12 03:16:08;;;;;;;0.30;0.30;;;;;;;-2.83;100.00;101108.34;4915203;29;20038;-72
2022/12/12 03:18:47;;;;;;;0.30;0.30;;;;;;;-2.92;100.00;101091.84;4931161;29;20107;-72
2022/12/12 03:21:20;;;;;;;0.30;0.30;;;;;;;-2.85;100.00;101108.38;4941287;28;20035;-72
2022/12/12 03:23:49;;;;;;;0.30;0.30;;;;;;;-2.95;100.00;101106.78;4932529;29;20055;-72
2022/12/12 03:26:16;;;;;;;0.30;0.30;;;;;;;-3.09;100.00;101107.03;4932969;28;20037;-73
2022/12/12 03:28:47;;;;;;;0.30;0.30;;;;;;;-3.26;100.00;101088.91;4928441;29;20040;-72
2022/12/12 03:31:13;;;;;;;0.30;0.30;;;;;;;-3.25;100.00;101112.53;4932695;29;20031;-73
2022/12/12 03:33:56;;;;;;;0.30;0.30;;;;;;;-3.26;100.00;101115.19;4908450;29;20035;-73
2022/12/12 03:36:37;;;;;;;0.20;0.20;;;;;;;-3.39;100.00;101097.00;4945434;28;20390;-73
2022/12/12 03:39:12;;;;;;;0.30;0.30;;;;;;;-3.28;100.00;101114.34;4926933;28;20042;-73
2022/12/12 03:41:42;;;;;;;0.30;0.30;;;;;;;-3.27;100.00;101116.06;4934931;29;20034;-73
2022/12/12 03:44:13;;;;;;;0.30;0.30;;;;;;;-3.39;100.00;101090.88;4932193;28;20038;-73
2022/12/12 03:46:50;;;;;;;0.30;0.30;;;;;;;-3.28;100.00;101117.84;4934426;29;20773;-73
2022/12/12 03:49:24;;;;;;;0.30;0.30;;;;;;;-3.51;100.00;101098.06;4944952;28;20031;-73
2022/12/12 03:51:58;;;;;;;0.30;0.30;;;;;;;-3.54;100.00;101100.72;4915369;28;20130;-73
2022/12/12 03:54:32;;;;;;;0.30;0.30;;;;;;;-3.65;100.00;101095.66;4929868;28;20035;-73
2022/12/12 03:57:05;;;;;;;0.30;0.30;;;;;;;-3.51;100.00;101126.94;4945664;28;20842;-73
2022/12/12 03:59:43;;;;;;;0.30;0.30;;;;;;;-3.67;100.00;101105.28;4937279;28;20493;-73
2022/12/12 04:02:37;;;;;;;0.30;0.30;;;;;;;-3.45;100.00;101131.22;4924247;28;20039;-73
2022/12/12 04:05:14;;;;;;;0.30;0.30;;;;;;;-3.43;100.00;101132.06;4925947;28;20582;-73
2022/12/12 04:07:58;;;;;;;0.30;0.30;;;;;;;-3.61;100.00;101106.94;4931200;28;20118;-73
2022/12/12 04:13:27;;;;;;;;;;;;;;;-3.69;100.00;101119.31;4925134;29;20050;-72
2022/12/12 04:16:02;;;;;;;0.30;0.30;;;;;;;-3.88;100.00;101106.44;4940890;28;19922;-73
2022/12/12 04:18:39;;;;;;;0.30;0.30;;;;;;;-3.94;100.00;101119.66;4911362;28;20437;-73
2022/12/12 04:24:20;;;;;;;0.30;0.30;;;;;;;-3.99;100.00;101130.22;4949030;28;20042;-73
2022/12/12 04:27:08;;;;;;;0.32;0.32;;;;;;;-4.02;100.00;101126.78;4948432;28;20062;-73
2022/12/12 04:29:37;;;;;;;0.30;0.30;;;;;;;-3.99;100.00;101132.84;4926510;29;20059;-73
2022/12/12 04:32:25;;;;;;;0.30;0.30;;;;;;;-4.01;100.00;101121.50;4925891;28;20035;-73
2022/12/12 04:35:00;;;;;;;0.20;0.20;;;;;;;-4.15;100.00;101089.34;4924836;29;20514;-73
2022/12/12 04:37:32;;;;;;;0.30;0.30;;;;;;;-4.03;100.00;101101.41;4949387;28;20032;-72
2022/12/12 04:40:00;;;;;;;0.30;0.30;;;;;;;-3.92;100.00;101126.63;4926925;29;20074;-72
2022/12/12 04:42:31;;;;;;;0.30;0.30;;;;;;;-3.89;100.00;101136.19;4929294;28;20711;-72
2022/12/12 04:45:02;;;;;;;0.30;0.30;;;;;;;-3.89;100.00;101141.44;4939161;28;20082;-73
2022/12/12 04:47:29;;;;;;;0.30;0.30;;;;;;;-4.14;100.00;101102.41;4929130;28;20035;-73
2022/12/12 04:49:55;;;;;;;0.30;0.30;;;;;;;-4.06;100.00;101131.16;4928891;28;20061;-73
2022/12/12 04:52:22;;;;;;;0.30;0.30;;;;;;;-4.17;100.00;101119.97;4919395;28;20046;-72
2022/12/12 04:55:02;;;;;;;0.30;0.30;;;;;;;-4.11;100.00;101135.63;4934479;28;20058;-73
2022/12/12 04:57:33;;;;;;;0.30;0.30;;;;;;;-4.13;100.00;101140.88;4936084;28;20478;-73
2022/12/12 04:59:58;;;;;;;0.30;0.30;;;;;;;-4.05;100.00;101143.38;4928365;28;20830;-73
2022/12/12 05:02:36;;;;;;;0.30;0.30;;;;;;;-4.00;100.00;101154.69;4937792;28;20024;-73
2022/12/12 05:05:07;;;;;;;0.30;0.30;;;;;;;-4.22;100.00;101112.13;4936026;28;20066;-72
2022/12/12 05:07:35;;;;;;;0.30;0.30;;;;;;;-4.01;100.00;101147.72;4932668;28;20566;-73
2022/12/12 05:10:01;;;;;;;0.30;0.30;;;;;;;-4.20;100.00;101131.31;4914620;29;20114;-72
2022/12/12 05:12:26;;;;;;;0.30;0.30;;;;;;;-4.14;100.00;101147.00;4923804;28;20035;-72
2022/12/12 05:14:52;;;;;;;0.25;0.25;;;;;;;-4.18;100.00;101154.94;4929292;28;20110;-73
2022/12/12 05:17:23;;;;;;;0.30;0.30;;;;;;;-4.24;100.00;101155.88;4933513;29;20035;-73
2022/12/12 05:19:49;;;;;;;0.30;0.30;;;;;;;-4.40;100.00;101142.06;4921036;28;20517;-73
2022/12/12 05:22:14;;;;;;;0.30;0.30;;;;;;;-4.52;100.00;101125.56;4941375;28;20034;-73
2022/12/12 05:24:39;;;;;;;0.30;0.30;;;;;;;-4.47;100.00;101158.72;4929271;28;20180;-73
2022/12/12 05:27:05;;;;;;;0.30;0.30;;;;;;;-4.58;100.00;101159.69;4939564;28;20039;-73
2022/12/12 05:29:30;;;;;;;0.30;0.30;;;;;;;-4.74;100.00;101131.91;4943947;28;20106;-73
2022/12/12 05:31:56;;;;;;;0.30;0.30;;;;;;;-4.79;100.00;101121.50;4942765;28;20114;-73
2022/12/12 05:34:23;;;;;;;0.22;0.22;;;;;;;-4.67;100.00;101150.19;4930288;28;20034;-73
2022/12/12 05:36:48;;;;;;;0.30;0.30;;;;;;;-4.78;100.00;101143.31;4927976;29;20098;-73
2022/12/12 05:39:13;;;;;;;0.30;0.30;;;;;;;-4.76;100.00;101158.13;4921849;28;20115;-73
2022/12/12 05:41:39;;;;;;;0.30;0.30;;;;;;;-4.91;100.00;101135.56;4914171;28;20193;-73
2022/12/12 05:44:04;;;;;;;0.30;0.30;;;;;;;-4.92;100.00;101135.56;4927634;28;20390;-73
2022/12/12 05:46:30;;;;;;;0.30;0.30;;;;;;;-4.99;100.00;101134.75;4930390;28;20490;-73
2022/12/12 05:48:55;;;;;;;0.30;0.30;;;;;;;-4.98;100.00;101124.25;4937439;28;20090;-73
2022/12/12 05:51:21;;;;;;;0.30;0.30;;;;;;;-4.91;100.00;101134.69;4930859;28;20402;-73
2022/12/12 05:53:46;;;;;;;0.20;0.20;;;;;;;-4.85;100.00;101166.09;4939894;28;20050;-73
2022/12/12 05:56:12;;;;;;;0.30;0.30;;;;;;;-4.92;100.00;101167.88;4931181;29;20489;-73
2022/12/12 05:58:41;;;;;;;0.30;0.30;;;;;;;-5.23;100.00;101148.91;4934791;29;20421;-73
2022/12/12 06:01:07;;;;;;;0.30;0.30;;;;;;;-5.16;100.00;101172.41;4929779;29;20043;-73
2022/12/12 06:03:32;;;;;;;0.32;0.32;;;;;;;-5.23;100.00;101160.25;4935457;29;20063;-73
2022/12/12 06:05:58;;;;;;;0.30;0.30;;;;;;;-5.29;100.00;101150.69;4939514;28;20489;-73
2022/12/12 06:08:23;;;;;;;0.30;0.30;;;;;;;-5.22;100.00;101163.75;4932757;28;20038;-73
2022/12/12 06:10:49;;;;;;;0.30;0.30;;;;;;;-5.21;100.00;101153.28;4931694;28;20043;-73
2022/12/12 06:13:14;;;;;;;0.30;0.30;;;;;;;-5.25;100.00;101145.44;4927557;29;20035;-73
2022/12/12 06:15:40;;;;;;;0.30;0.30;;;;;;;-5.04;100.00;101176.72;4930657;29;20101;-73
2022/12/12 06:18:07;;;;;;;0.38;0.38;;;;;;;-5.03;100.00;101164.47;4928504;29;20043;-73
2022/12/12 06:20:32;;;;;;;0.30;0.30;;;;;;;-5.20;100.00;101148.88;4947832;28;20121;-73
2022/12/12 06:22:57;;;;;;;0.30;0.30;;;;;;;-5.23;100.00;101151.53;4930946;29;20050;-73
2022/12/12 06:25:23;;;;;;;0.20;0.20;;;;;;;-5.33;100.00;101163.81;4926910;28;20119;-73
2022/12/12 06:27:49;;;;;;;0.30;0.30;;;;;;;-5.46;100.00;101153.44;4917660;29;20031;-73
2022/12/12 06:30:14;;;;;;;0.30;0.30;;;;;;;-5.43;100.00;101158.63;4936169;28;20114;-73
2022/12/12 06:32:40;;;;;;;0.30;0.30;;;;;;;-5.38;100.00;101163.84;4938695;28;20045;-73
2022/12/12 06:35:05;;;;;;;0.40;0.40;;;;;;;-5.33;100.00;101162.09;4951515;28;20372;-73
2022/12/12 06:37:31;;;;;;;0.30;0.30;;;;;;;-5.22;100.00;101182.06;4931205;29;20039;-73
2022/12/12 06:39:56;;;;;;;0.30;0.30;;;;;;;-5.26;100.00;101181.22;4917522;28;20398;-73
2022/12/12 06:42:21;;;;;;;0.30;0.30;;;;;;;-5.25;100.00;101182.09;4937226;28;20514;-73
2022/12/12 06:44:46;;;;;;;0.38;0.38;;;;;;;-5.56;100.00;101146.50;4918279;29;20171;-73
2022/12/12 06:47:12;;;;;;;0.30;0.30;;;;;;;-5.58;100.00;101163.97;4946025;28;20106;-73
2022/12/12 06:49:37;;;;;;;0.35;0.35;;;;;;;-5.57;100.00;101177.06;4936329;28;20042;-73
2022/12/12 06:52:03;;;;;;;0.30;0.30;;;;;;;-5.47;100.00;101188.34;4931780;29;20039;-73
2022/12/12 06:54:28;;;;;;;0.30;0.30;;;;;;;-5.52;100.00;101178.75;4941505;28;20086;-73
2022/12/12 06:56:54;;;;;;;0.32;0.32;;;;;;;-5.54;100.00;101185.75;4931953;29;20024;-73
2022/12/12 06:59:20;;;;;;;0.30;0.30;;;;;;;-5.66;100.00;101179.72;4917494;29;20047;-73
2022/12/12 07:01:45;;;;;;;0.38;0.38;;;;;;;-5.65;100.00;101177.94;4915427;29;20035;-73
2022/12/12 07:04:12;;;;;;;0.40;0.40;;;;;;;-5.58;100.00;101200.59;4929214;29;20038;-73
2022/12/12 07:06:37;;;;;;;0.35;0.35;;;;;;;-5.70;100.00;101190.22;4907249;29;20033;-73
2022/12/12 07:09:03;;;;;;;0.40;0.40;;;;;;;-5.59;100.00;101204.97;4931755;29;20129;-73
2022/12/12 07:11:28;;;;;;;0.38;0.38;;;;;;;-5.50;100.00;101211.91;4926944;29;20045;-73
2022/12/12 07:13:55;;;;;;;0.30;0.30;;;;;;;-5.39;100.00;101210.97;4944820;28;20051;-73
2022/12/12 07:16:20;;;;;;;0.30;0.30;;;;;;;-5.49;100.00;101190.09;4930219;29;20485;-73
2022/12/12 07:18:46;;;;;;;0.30;0.30;;;;;;;-5.29;100.00;101216.13;4929557;29;20047;-73
2022/12/12 07:21:15;;;;;;;0.40;0.40;;;;;;;-5.24;100.00;101220.47;4923219;29;20031;-73
2022/12/12 07:23:41;;;;;;;0.30;0.30;;;;;;;-5.40;100.00;101181.31;4931179;29;20474;-73
2022/12/12 07:26:10;;;;;;;0.30;0.30;;;;;;;-5.12;100.00;101217.78;4925394;28;20047;-73
2022/12/12 07:28:37;;;;;;;0.30;0.30;;;;;;;-5.18;100.00;101194.25;4944737;28;20054;-73
2022/12/12 07:31:13;;;;;;;0.30;0.30;;;;;;;-5.19;100.00;101197.75;4919183;28;20508;-73
2022/12/12 07:33:39;;;;;;;0.30;0.30;;;;;;;-5.23;100.00;101191.69;4928287;28;20039;-73
2022/12/12 07:36:04;;;;;;;0.30;0.30;;;;;;;-5.01;100.00;101228.19;4921560;28;20083;-73
2022/12/12 07:38:30;;;;;;;0.30;0.30;;;;;;;-5.20;100.00;101198.63;4923716;28;20035;-73
2022/12/12 07:41:02;;;;;;;0.38;0.38;;;;;;;-5.05;100.00;101236.94;4911232;29;20035;-73
2022/12/12 07:43:28;;;;;;;0.40;0.40;;;;;;;-5.18;100.00;101213.47;4905649;28;20031;-73
2022/12/12 07:45:53;;;;;;;0.35;0.35;;;;;;;-5.25;100.00;101201.28;4937641;28;20122;-73
2022/12/12 07:48:18;;;;;;;0.40;0.40;;;;;;;-5.00;100.00;101241.25;4932393;28;20146;-73
2022/12/12 07:50:44;;;;;;;0.30;0.30;;;;;;;-5.16;100.00;101211.69;4915626;29;20058;-73
2022/12/12 07:53:09;;;;;;;0.30;0.30;;;;;;;-5.06;100.00;101228.22;4940531;28;20043;-73
2022/12/12 07:55:37;;;;;;;0.40;0.40;;;;;;;-4.93;100.00;101238.59;4926827;28;20472;-73
2022/12/12 07:58:02;;;;;;;0.30;0.30;;;;;;;-5.12;100.00;101216.03;4918973;28;21058;-73
2022/12/12 08:00:28;;;;;;;0.40;0.40;;;;;;;-5.03;100.00;101222.09;4935176;29;20585;-73
2022/12/12 08:02:53;;;;;;;0.30;0.30;;;;;;;-4.95;100.00;101236.00;4914463;28;20434;-73
2022/12/12 08:05:19;;;;;;;0.30;0.30;;;;;;;-4.97;100.00;101224.66;4942982;29;20452;-73
2022/12/12 08:07:45;;;;;;;0.30;0.30;;;;;;;-4.87;100.00;101241.19;4914018;28;20027;-73
2022/12/12 08:10:11;;;;;;;0.30;0.30;;;;;;;-4.99;100.00;101221.19;4916633;29;20035;-73
2022/12/12 08:12:36;;;;;;;0.35;0.35;;;;;;;-4.92;100.00;101225.50;4938337;28;20037;-73
2022/12/12 08:15:02;;;;;;;0.30;0.30;;;;;;;-4.72;100.00;101241.06;4921833;29;20039;-73
2022/12/12 08:17:27;;;;;;;0.30;0.30;;;;;;;-4.48;100.00;101252.22;4930948;28;20490;-73
2022/12/12 08:19:53;;;;;;;0.30;0.30;;;;;;;-4.38;100.00;101237.28;4906883;29;20031;-73
2022/12/12 08:22:18;;;;;;;0.35;0.35;;;;;;;-4.24;100.00;101237.16;4929823;29;20380;-73
2022/12/12 08:24:43;;;;;;;0.30;0.30;;;;;;;-3.84;100.00;101270.84;4950462;28;20066;-73
2022/12/12 08:27:09;;;;;;;0.30;0.30;;;;;;;-3.77;100.00;101241.03;4940633;28;20047;-73
2022/12/12 08:29:35;;;;;;;0.35;0.35;;;;;;;-3.72;100.00;101246.19;4935193;28;20062;-73
2022/12/12 08:32:00;;;;;;;0.30;0.30;;;;;;;-3.54;100.00;101257.34;4913046;29;20065;-73
2022/12/12 08:34:25;;;;;;;0.20;0.20;;;;;;;-3.47;100.00;101273.03;4936172;28;20118;-73
2022/12/12 08:36:51;;;;;;;0.30;0.30;;;;;;;-3.63;100.00;101248.72;4909988;29;20027;-73
2022/12/12 08:39:17;;;;;;;0.30;0.30;;;;;;;-3.59;100.00;101246.06;4945199;28;20037;-73
2022/12/12 08:41:45;;;;;;;0.30;0.30;;;;;;;-3.71;100.00;101228.72;4930543;29;20141;-73
2022/12/12 08:44:11;;;;;;;0.30;0.30;;;;;;;-3.92;100.00;101247.31;4926101;28;20027;-73
2022/12/12 08:46:37;;;;;;;0.30;0.30;;;;;;;-3.76;100.00;101260.25;4935089;28;20486;-73
2022/12/12 08:49:03;;;;;;;0.30;0.30;;;;;;;-3.80;100.00;101277.78;4943009;28;20035;-73
2022/12/12 08:51:28;;;;;;;0.30;0.30;;;;;;;-3.73;100.00;101259.34;4927026;29;20125;-73
2022/12/12 08:53:54;;;;;;;0.30;0.30;;;;;;;-3.62;100.00;101253.09;4928942;29;20122;-73
2022/12/12 08:56:20;;;;;;;0.30;0.30;;;;;;;-3.35;100.00;101269.38;4934354;29;20042;-73
2022/12/12 08:58:46;;;;;;;0.30;0.30;;;;;;;-3.34;100.00;101236.97;4936294;29;20430;-74
2022/12/12 09:01:17;;;;;;;0.30;0.30;;;;;;;-3.14;100.00;101248.97;4911504;29;20435;-74
2022/12/12 09:03:42;;;;;;;0.30;0.30;;;;;;;-3.13;100.00;101241.94;4910455;29;20043;-73
2022/12/12 09:06:09;;;;;;;0.38;0.38;;;;;;;-2.78;100.00;101256.31;4919112;28;20023;-73
2022/12/12 09:08:35;;;;;;;0.30;0.30;;;;;;;-2.68;100.00;101252.66;4903274;29;20027;-73
2022/12/12 09:11:00;;;;;;;0.30;0.30;;;;;;;-2.54;100.00;101284.00;4928031;28;20028;-73
2022/12/12 09:13:25;;;;;;;0.30;0.30;;;;;;;-2.42;100.00;101267.13;4915101;29;20043;-73
2022/12/12 09:15:51;;;;;;;0.30;0.30;;;;;;;-2.08;100.00;101281.47;4949313;28;20019;-73
2022/12/12 09:18:18;;;;;;;0.30;0.30;;;;;;;-2.04;100.00;101283.16;4935284;28;20426;-73
2022/12/12 09:20:48;;;;;;;0.30;0.30;;;;;;;-1.84;100.00;101274.84;4914936;28;20043;-73
2022/12/12 09:23:13;;;;;;;0.30;0.30;;;;;;;-1.92;100.00;101247.84;4931548;29;20035;-73
2022/12/12 09:25:39;;;;;;;0.30;0.30;;;;;;;-2.03;100.00;101254.16;4915435;28;20062;-73
2022/12/12 09:28:04;;;;;;;0.30;0.30;;;;;;;-1.47;100.00;101268.00;4915007;29;20142;-73
2022/12/12 09:30:29;;;;;;;0.30;0.30;;;;;;;-1.37;100.00;101261.63;4929142;28;20045;-73
2022/12/12 09:32:54;;;;;;;0.30;0.30;;;;;;;-1.00;100.00;101287.19;4945346;28;20031;-73
2022/12/12 09:35:20;;;;;;;0.30;0.30;;;;;;;-0.84;100.00;101260.47;4915762;28;20047;-73
2022/12/12 09:37:45;;;;;;;0.40;0.40;;;;;;;-0.55;100.00;101264.19;4950527;28;20039;-73
2022/12/12 09:40:17;;;;;;;0.32;0.32;;;;;;;-0.22;100.00;101270.38;4930529;29;20038;-74
2022/12/12 09:42:47;;;;;;;0.30;0.30;;;;;;;0.33;100.00;101287.44;4933776;29;20481;-73
2022/12/12 09:45:12;;;;;;;0.30;0.30;;;;;;;0.79;98.29;101269.38;4922118;28;20103;-73
2022/12/12 09:47:41;;;;;;;0.30;0.30;;;;;;;0.82;96.26;101293.06;4942135;28;20126;-73
2022/12/12 09:50:22;;;;;;;0.30;0.30;;;;;;;0.78;95.73;101288.78;4921935;29;20039;-73
2022/12/12 09:52:48;;;;;;;0.30;0.30;;;;;;;0.76;97.55;101277.41;4925808;29;20027;-73
2022/12/12 09:55:19;;;;;;;0.30;0.30;;;;;;;0.62;99.42;101288.38;4927023;29;20506;-73
2022/12/12 09:57:56;;;;;;;0.30;0.30;;;;;;;1.03;96.69;101268.63;4941397;28;20496;-74
2022/12/12 10:00:21;;;;;;;0.30;0.30;;;;;;;1.33;92.21;101263.25;4924747;28;20484;-73
2022/12/12 10:03:11;;;;;;;0.30;0.30;;;;;;;2.17;88.37;101286.94;4913116;29;20030;-73
2022/12/12 10:05:43;;;;;;;0.30;0.30;;;;;;;2.42;86.61;101282.53;4943920;28;20031;-74
2022/12/12 10:08:20;;;;;;;0.30;0.30;;;;;;;2.38;84.75;101290.59;4931684;28;20377;-73
2022/12/12 10:10:49;;;;;;;0.30;0.30;;;;;;;2.53;85.93;101278.56;4948546;28;20054;-74
2022/12/12 10:13:18;;;;;;;0.28;0.28;;;;;;;2.78;84.59;101284.75;4947621;28;20212;-74
2022/12/12 10:15:50;;;;;;;0.30;0.30;;;;;;;2.50;85.57;101259.28;4925635;28;20066;-74
2022/12/12 10:18:21;;;;;;;0.30;0.30;;;;;;;2.44;84.96;101272.75;4912378;28;20516;-73
2022/12/12 10:20:49;;;;;;;0.30;0.30;;;;;;;2.50;85.26;101269.88;4944032;28;20517;-74
2022/12/12 10:23:45;;;;;;;0.20;0.20;;;;;;;2.61;83.77;101258.88;4931436;28;20470;-74
2022/12/12 10:26:20;;;;;;;0.30;0.30;;;;;;;3.08;82.00;101253.50;4925406;28;20048;-74
2022/12/12 10:28:49;;;;;;;0.30;0.30;;;;;;;3.17;81.29;101240.81;4946733;28;20043;-74
2022/12/12 10:31:33;;;;;;;0.20;0.20;;;;;;;3.42;79.38;101257.47;4929891;28;20042;-74
2022/12/12 10:34:07;;;;;;;0.20;0.20;;;;;;;3.50;81.65;101254.47;4941529;28;20026;-75
2022/12/12 10:36:32;;;;;;;;;;;;;;;3.88;79.70;101249.31;4939026;28;20037;-75
2022/12/12 10:39:06;;;;;;;0.20;0.20;;;;;;;4.28;74.76;101233.41;4943885;28;19918;-74
2022/12/12 10:41:44;;;;;;;0.20;0.20;;;;;;;4.58;72.62;101254.22;4940113;29;20277;-74
2022/12/12 10:44:30;;;;;;;0.28;0.28;;;;;;;4.45;70.53;101251.25;4941316;28;20071;-74
2022/12/12 10:47:06;;;;;;;0.20;0.20;;;;;;;4.55;69.34;101225.09;4943987;28;20031;-74
2022/12/12 10:49:32;;;;;;;0.20;0.20;;;;;;;4.13;69.88;101258.03;4942646;28;20042;-74
2022/12/12 10:52:03;;;;;;;0.30;0.30;;;;;;;4.28;71.05;101243.19;4931071;29;20556;-74
2022/12/12 10:54:35;;;;;;;0.20;0.20;;;;;;;4.07;68.96;101223.75;4944581;28;20035;-74
2022/12/12 10:57:10;;;;;;;0.30;0.30;;;;;;;4.17;71.16;101230.38;4946275;28;20066;-73
2022/12/12 10:59:40;;;;;;;0.20;0.20;;;;;;;4.64;68.65;101247.75;4946956;28;20027;-74
2022/12/12 11:02:35;;;;;;;0.20;0.20;;;;;;;4.72;69.31;101220.81;4941994;28;20035;-74
2022/12/12 11:05:04;;;;;;;0.20;0.20;;;;;;;4.01;73.37;101246.13;4939313;28;20159;-74
2022/12/12 11:07:30;;;;;;;0.20;0.20;;;;;;;4.26;71.25;101214.00;4944848;28;20028;-74
2022/12/12 11:09:57;;;;;;;0.20;0.20;;;;;;;5.18;66.76;101228.34;4945531;28;20034;-74
2022/12/12 11:12:31;;;;;;;0.20;0.20;;;;;;;5.15;67.01;101224.06;4938039;28;20115;-74
2022/12/12 11:15:04;;;;;;;0.20;0.20;;;;;;;5.34;64.71;101234.66;4949156;28;20500;-74
2022/12/12 11:17:32;;;;;;;0.20;0.20;;;;;;;4.95;66.45;101222.34;4916925;28;20039;-74
2022/12/12 11:20:00;;;;;;;0.30;0.30;;;;;;;4.92;66.15;101235.81;4926459;29;20036;-74
2022/12/12 11:22:27;;;;;;;0.30;0.30;;;;;;;5.46;64.11;101224.31;4929378;28;20029;-74
2022/12/12 11:24:52;;;;;;;0.28;0.28;;;;;;;5.32;61.84;101217.91;4939166;28;20027;-75
2022/12/12 11:27:27;;;;;;;0.20;0.20;;;;;;;5.19;62.83;101222.97;4917806;29;20031;-75
2022/12/12 11:29:54;;;;;;;0.20;0.20;;;;;;;4.95;65.87;101225.00;4918917;29;20035;-75
2022/12/12 11:32:30;;;;;;;0.20;0.20;;;;;;;5.15;64.31;101220.56;4921834;28;20067;-74
2022/12/12 11:35:00;;;;;;;0.30;0.30;;;;;;;5.07;64.37;101220.91;4940279;28;20501;-74
2022/12/12 11:37:30;;;;;;;0.20;0.20;;;;;;;5.56;61.76;101193.63;4913941;29;20036;-74